createdAt,value
2022-08-21T00:01:05.944Z,1.15
2022-08-21T00:03:56.393Z,1.10
2022-08-21T00:06:47.086Z,1.23
2022-08-21T00:09:36.259Z,1.08
2022-08-21T00:12:25.961Z,0.90
2022-08-21T00:15:17.614Z,1.35
2022-08-21T00:18:10.156Z,1.25
2022-08-21T00:21:01.255Z,0.85
2022-08-21T00:23:51.354Z,1.10
2022-08-21T00:26:40.890Z,1.10
2022-08-21T00:29:30.030Z,1.00
2022-08-21T00:32:23.646Z,0.98
2022-08-21T00:35:17.503Z,1.25
2022-08-21T00:38:08.838Z,1.13
2022-08-21T00:41:10.219Z,0.95
2022-08-21T00:44:12.357Z,1.00
2022-08-21T00:47:01.536Z,1.02
2022-08-21T00:49:50.248Z,1.23
2022-08-21T00:52:41.958Z,1.30
2022-08-21T00:55:33.074Z,1.30
2022-08-21T00:58:22.877Z,0.95
2022-08-21T01:01:12.149Z,1.20
2022-08-21T01:04:00.833Z,1.05
2022-08-21T01:06:49.857Z,1.25
2022-08-21T01:09:41.684Z,1.00
2022-08-21T01:12:30.898Z,0.93
2022-08-21T01:15:21.693Z,1.08
2022-08-21T01:18:12.769Z,0.93
2022-08-21T01:21:06.481Z,1.20
2022-08-21T01:23:56.983Z,0.80
2022-08-21T01:26:46.554Z,0.98
2022-08-21T01:29:40.218Z,1.00
2022-08-21T01:32:29.011Z,1.10
2022-08-21T01:35:20.394Z,0.98
2022-08-21T01:38:10.397Z,0.93
2022-08-21T01:40:59.601Z,1.00
2022-08-21T01:43:48.890Z,1.23
2022-08-21T01:46:38.016Z,1.13
2022-08-21T01:49:27.220Z,1.40
2022-08-21T01:52:16.441Z,1.00
2022-08-21T01:55:07.960Z,1.60
2022-08-21T01:57:57.098Z,1.33
2022-08-21T02:00:46.126Z,1.25
2022-08-21T02:03:36.718Z,0.90
2022-08-21T02:06:25.847Z,1.10
2022-08-21T02:09:16.023Z,1.20
2022-08-21T02:12:07.590Z,1.48
2022-08-21T02:14:56.790Z,1.35
2022-08-21T02:17:49.768Z,1.23
2022-08-21T02:20:41.181Z,1.17
2022-08-21T02:23:30.480Z,1.00
2022-08-21T02:26:19.399Z,1.40
2022-08-21T02:29:10.050Z,1.05
2022-08-21T02:31:59.283Z,1.30
2022-08-21T02:34:48.429Z,1.13
2022-08-21T02:37:44.531Z,1.17
2022-08-21T02:40:35.099Z,1.13
2022-08-21T02:43:26.089Z,1.00
2022-08-21T02:46:19.301Z,1.05
2022-08-21T02:49:08.398Z,1.20
2022-08-21T02:51:57.494Z,0.98
2022-08-21T02:54:46.766Z,0.90
2022-08-21T02:57:36.079Z,1.00
2022-08-21T03:00:27.292Z,1.05
2022-08-21T03:03:18.415Z,1.10
2022-08-21T03:06:09.422Z,1.15
2022-08-21T03:09:00.086Z,1.35
2022-08-21T03:11:49.160Z,1.33
2022-08-21T03:14:39.700Z,1.25
2022-08-21T03:17:30.387Z,0.73
2022-08-21T03:20:25.068Z,1.20
2022-08-21T03:23:18.500Z,0.93
2022-08-21T03:26:08.917Z,1.20
2022-08-21T03:28:58.782Z,1.20
2022-08-21T03:31:48.602Z,0.90
2022-08-21T03:34:38.441Z,1.25
2022-08-21T03:37:29.546Z,0.93
2022-08-21T03:40:21.706Z,1.00
2022-08-21T03:43:11.591Z,1.25
2022-08-21T03:46:01.214Z,1.10
2022-08-21T03:48:51.052Z,0.90
2022-08-21T03:51:40.038Z,0.82
2022-08-21T03:54:30.673Z,1.00
2022-08-21T03:57:22.776Z,1.00
2022-08-21T04:00:14.611Z,1.15
2022-08-21T04:03:03.981Z,1.75
2022-08-21T04:05:52.906Z,1.00
2022-08-21T04:08:44.033Z,1.15
2022-08-21T04:11:35.116Z,1.23
2022-08-21T04:14:25.391Z,1.10
2022-08-21T04:17:14.484Z,1.33
2022-08-21T04:20:03.401Z,0.98
2022-08-21T04:22:53.303Z,1.00
2022-08-21T04:25:42.310Z,1.08
2022-08-21T04:28:33.363Z,1.20
2022-08-21T04:31:22.309Z,0.80
2022-08-21T04:34:11.086Z,1.10
2022-08-21T04:37:00.094Z,0.88
2022-08-21T04:39:53.308Z,1.10
2022-08-21T04:42:50.018Z,0.95
2022-08-21T04:45:43.945Z,1.20
2022-08-21T04:48:33.923Z,1.10
2022-08-21T04:51:27.678Z,1.27
2022-08-21T04:54:22.709Z,1.05
2022-08-21T04:57:12.441Z,1.15
2022-08-21T05:00:01.099Z,0.90
2022-08-21T05:02:55.303Z,1.17
2022-08-21T05:05:44.670Z,0.90
2022-08-21T05:08:34.279Z,0.90
2022-08-21T05:11:24.389Z,1.05
2022-08-21T05:14:15.625Z,1.38
2022-08-21T05:17:05.579Z,1.10
2022-08-21T05:19:56.338Z,1.05
2022-08-21T05:22:45.614Z,1.20
2022-08-21T05:25:34.669Z,1.42
2022-08-21T05:28:25.503Z,1.27
2022-08-21T05:31:15.816Z,0.90
2022-08-21T05:34:05.567Z,0.90
2022-08-21T05:36:56.238Z,1.20
2022-08-21T05:40:05.159Z,1.17
2022-08-21T05:42:58.244Z,0.70
2022-08-21T05:45:48.066Z,0.73
2022-08-21T05:48:38.110Z,1.42
2022-08-21T05:51:27.301Z,1.00
2022-08-21T05:54:17.866Z,1.02
2022-08-21T05:57:07.448Z,1.08
2022-08-21T05:59:56.616Z,1.30
2022-08-21T06:02:45.949Z,0.95
2022-08-21T06:05:36.771Z,0.90
2022-08-21T06:08:27.685Z,0.73
2022-08-21T06:11:20.727Z,0.90
2022-08-21T06:14:10.072Z,1.00
2022-08-21T06:17:05.418Z,0.80
2022-08-21T06:19:55.420Z,0.90
2022-08-21T06:22:44.825Z,0.85
2022-08-21T06:25:33.999Z,1.00
2022-08-21T06:28:24.550Z,0.80
2022-08-21T06:31:15.434Z,0.82
2022-08-21T06:34:04.887Z,0.93
2022-08-21T06:36:53.858Z,0.90
2022-08-21T06:39:45.629Z,0.95
2022-08-21T06:42:34.598Z,1.40
2022-08-21T06:45:25.424Z,1.33
2022-08-21T06:48:19.344Z,0.90
2022-08-21T06:51:08.868Z,1.40
2022-08-21T06:53:59.385Z,1.58
2022-08-21T06:56:48.887Z,1.25
2022-08-21T06:59:37.869Z,1.35
2022-08-21T07:02:28.678Z,1.70
2022-08-21T07:05:18.600Z,2.38
2022-08-21T07:08:08.143Z,1.40
2022-08-21T07:10:58.994Z,2.83
2022-08-21T07:13:49.730Z,2.28
2022-08-21T07:16:38.513Z,2.70
2022-08-21T07:19:28.947Z,1.25
2022-08-21T07:22:21.046Z,1.63
2022-08-21T07:25:11.144Z,1.65
2022-08-21T07:28:00.640Z,1.52
2022-08-21T07:30:55.095Z,1.40
2022-08-21T07:33:44.448Z,1.63
2022-08-21T07:36:35.166Z,1.60
2022-08-21T07:39:24.447Z,1.40
2022-08-21T07:42:13.503Z,2.25
2022-08-21T07:45:02.846Z,1.67
2022-08-21T07:47:55.420Z,1.50
2022-08-21T07:50:47.055Z,1.90
2022-08-21T07:53:38.163Z,2.20
2022-08-21T07:56:27.268Z,2.00
2022-08-21T07:59:16.364Z,2.17
2022-08-21T08:02:05.465Z,1.90
2022-08-21T08:04:54.508Z,2.90
2022-08-21T08:07:43.597Z,2.90
2022-08-21T08:10:34.246Z,3.35
2022-08-21T08:13:23.250Z,2.30
2022-08-21T08:16:12.686Z,4.13
2022-08-21T08:19:02.367Z,3.72
2022-08-21T08:21:51.481Z,2.60
2022-08-21T08:24:41.733Z,2.75
2022-08-21T08:27:32.351Z,2.90
2022-08-21T08:30:23.767Z,2.53
2022-08-21T08:33:13.026Z,4.05
2022-08-21T08:36:06.393Z,2.60
2022-08-21T08:38:57.747Z,2.30
2022-08-21T08:41:57.889Z,3.30
2022-08-21T08:44:50.979Z,2.80
2022-08-21T08:47:43.086Z,2.20
2022-08-21T08:50:43.191Z,1.60
2022-08-21T08:53:35.287Z,2.30
2022-08-21T08:56:30.311Z,2.20
2022-08-21T08:59:23.847Z,1.60
2022-08-21T09:02:16.586Z,1.92
2022-08-21T09:05:06.346Z,1.60
2022-08-21T09:08:18.113Z,1.88
2022-08-21T09:11:14.683Z,1.67
2022-08-21T09:14:14.019Z,1.67
2022-08-21T09:17:13.639Z,1.38
2022-08-21T09:20:21.240Z,2.08
2022-08-21T09:23:21.633Z,2.00
2022-08-21T09:26:15.926Z,2.72
2022-08-21T09:29:05.286Z,1.50
2022-08-21T09:31:54.469Z,1.52
2022-08-21T09:34:43.691Z,2.30
2022-08-21T09:37:36.311Z,1.60
2022-08-21T09:40:36.000Z,1.50
2022-08-21T09:43:27.531Z,1.95
2022-08-21T09:46:25.610Z,1.92
2022-08-21T09:49:28.931Z,1.50
2022-08-21T09:52:22.970Z,1.63
2022-08-21T09:55:40.900Z,1.75
2022-08-21T09:58:35.604Z,1.52
2022-08-21T10:01:27.361Z,1.23
2022-08-21T10:04:16.795Z,1.40
2022-08-21T10:07:10.536Z,1.58
2022-08-21T10:10:05.997Z,1.60
2022-08-21T10:13:11.393Z,1.63
2022-08-21T10:16:13.614Z,1.80
2022-08-21T10:19:17.583Z,1.55
2022-08-21T10:22:17.040Z,1.83
2022-08-21T10:25:17.100Z,1.40
2022-08-21T10:28:15.167Z,1.30
2022-08-21T10:31:14.188Z,1.95
2022-08-21T10:34:15.850Z,1.60
2022-08-21T10:37:19.860Z,1.48
2022-08-21T10:40:18.129Z,1.50
2022-08-21T10:43:23.998Z,1.48
2022-08-21T10:46:18.850Z,1.77
2022-08-21T10:49:20.228Z,1.45
2022-08-21T10:52:33.778Z,1.60
2022-08-21T10:55:25.205Z,1.40
2022-08-21T10:58:31.166Z,1.30
2022-08-21T11:01:28.606Z,1.90
2022-08-21T11:04:23.457Z,1.45
2022-08-21T11:07:22.352Z,1.60
2022-08-21T11:10:16.347Z,1.65
2022-08-21T11:13:13.725Z,1.65
2022-08-21T11:16:10.246Z,2.13
2022-08-21T11:19:07.721Z,1.80
2022-08-21T11:22:02.231Z,1.65
2022-08-21T11:24:53.627Z,1.48
2022-08-21T11:27:46.230Z,2.10
2022-08-21T11:30:48.832Z,1.50
2022-08-21T11:33:54.576Z,1.80
2022-08-21T11:36:51.426Z,1.95
2022-08-21T11:39:56.495Z,1.35
2022-08-21T11:42:51.662Z,1.48
2022-08-21T11:45:46.184Z,1.65
2022-08-21T11:48:43.011Z,1.65
2022-08-21T11:51:43.938Z,1.40
2022-08-21T11:54:41.148Z,1.80
2022-08-21T11:57:36.385Z,1.23
2022-08-21T12:00:30.317Z,1.40
2022-08-21T12:03:28.482Z,1.35
2022-08-21T12:06:24.225Z,1.23
2022-08-21T12:09:33.790Z,1.40
2022-08-21T16:57:23.870Z,1.27
2022-08-21T17:00:14.525Z,1.08
2022-08-21T17:03:03.531Z,0.82
2022-08-21T17:05:52.515Z,0.57
2022-08-21T17:08:41.576Z,0.95
2022-08-21T17:11:37.197Z,0.93
2022-08-21T17:14:28.108Z,0.90
2022-08-21T17:17:17.395Z,0.82
2022-08-21T17:20:06.896Z,0.90
2022-08-21T17:22:56.263Z,1.13
2022-08-21T17:25:46.410Z,1.00
2022-08-21T17:28:37.531Z,0.80
2022-08-21T17:31:28.434Z,0.82
2022-08-21T17:34:17.883Z,1.10
2022-08-21T17:37:07.573Z,1.00
2022-08-21T17:39:56.732Z,0.90
2022-08-21T17:42:47.530Z,1.05
2022-08-21T17:45:37.189Z,0.90
2022-08-21T17:48:28.475Z,0.90
2022-08-21T17:51:18.179Z,1.48
2022-08-21T17:54:07.704Z,0.90
2022-08-21T17:56:57.704Z,0.70
2022-08-21T17:59:47.250Z,0.63
2022-08-21T18:02:36.189Z,0.82
2022-08-21T18:05:28.139Z,1.33
2022-08-21T18:08:17.252Z,1.15
2022-08-21T18:11:07.367Z,0.90
2022-08-21T18:14:07.115Z,0.70
2022-08-21T18:16:57.247Z,0.70
2022-08-21T18:19:49.413Z,1.30
2022-08-21T18:22:40.092Z,0.90
2022-08-21T18:25:29.859Z,0.73
2022-08-21T18:28:19.728Z,0.90
2022-08-21T18:31:10.622Z,0.75
2022-08-21T18:34:02.252Z,1.02
2022-08-21T18:36:52.362Z,1.00
2022-08-21T18:39:43.271Z,1.10
2022-08-21T18:42:36.963Z,1.00
2022-08-21T18:45:25.766Z,1.08
2022-08-21T18:48:16.365Z,1.02
2022-08-21T18:51:06.669Z,1.02
2022-08-21T18:53:56.431Z,1.10
2022-08-21T18:56:49.770Z,1.10
2022-08-21T18:59:42.155Z,1.45
2022-08-21T19:02:31.705Z,1.33
2022-08-21T19:05:25.298Z,1.05
2022-08-21T19:08:17.230Z,0.93
2022-08-21T19:11:07.103Z,0.90
2022-08-21T19:13:57.332Z,1.08
2022-08-21T19:16:48.558Z,1.33
2022-08-21T19:19:39.329Z,1.10
2022-08-21T19:22:28.714Z,1.58
2022-08-21T19:25:17.441Z,1.27
2022-08-21T19:28:10.859Z,1.23
2022-08-21T19:31:05.310Z,1.67
2022-08-21T19:34:01.747Z,1.58
2022-08-21T19:36:51.552Z,1.73
2022-08-21T19:42:50.330Z,1.30
2022-08-21T19:45:39.988Z,1.60
2022-08-21T19:48:30.751Z,1.50
2022-08-21T19:51:20.194Z,1.55
2022-08-21T19:54:10.914Z,1.67
2022-08-21T19:57:04.603Z,2.10
2022-08-21T19:59:53.494Z,2.13
2022-08-21T20:02:50.806Z,1.45
2022-08-21T20:05:44.483Z,1.63
2022-08-21T20:08:34.385Z,1.42
2022-08-21T20:11:28.235Z,1.27
2022-08-21T20:14:22.941Z,1.52
2022-08-21T20:17:15.106Z,1.50
2022-08-21T20:20:04.133Z,1.98
2022-08-21T20:22:54.885Z,1.50
2022-08-21T20:25:45.408Z,1.70
2022-08-21T20:28:36.976Z,1.70
2022-08-21T20:31:29.068Z,1.35
2022-08-21T20:34:18.198Z,1.25
2022-08-21T20:37:09.120Z,1.35
2022-08-21T20:40:00.439Z,1.50
2022-08-21T20:42:52.709Z,1.10
2022-08-21T20:45:42.553Z,1.58
2022-08-21T20:48:49.134Z,1.38
2022-08-21T20:51:42.773Z,1.63
2022-08-21T20:54:37.492Z,1.30
2022-08-21T20:57:35.014Z,1.88
2022-08-21T21:00:27.706Z,1.38
2022-08-21T21:03:21.281Z,1.45
2022-08-21T21:06:22.923Z,1.73
2022-08-21T21:09:15.760Z,1.38
2022-08-21T21:12:09.124Z,1.45
2022-08-21T21:15:05.337Z,1.60
2022-08-21T21:18:03.774Z,1.52
2022-08-21T21:20:56.443Z,1.20
2022-08-21T21:23:50.565Z,1.40
2022-08-21T21:26:48.932Z,1.30
2022-08-21T21:29:43.282Z,1.25
2022-08-21T21:32:33.813Z,1.23
2022-08-21T21:35:32.457Z,1.55
2022-08-21T21:38:29.542Z,1.50
2022-08-21T21:41:29.187Z,1.20
2022-08-21T21:45:00.406Z,1.63
2022-08-21T21:48:07.713Z,1.50
2022-08-21T21:54:15.663Z,1.40
2022-08-21T21:57:08.239Z,1.38
2022-08-21T21:59:59.952Z,1.35
2022-08-21T22:02:57.068Z,1.40
2022-08-21T22:05:56.541Z,1.50
2022-08-21T22:08:51.034Z,1.30
2022-08-21T22:11:55.727Z,1.50
2022-08-21T22:14:46.675Z,1.20
2022-08-21T22:17:41.110Z,1.73
2022-08-21T22:20:36.601Z,1.30
2022-08-21T22:23:30.112Z,1.60
2022-08-21T22:26:22.506Z,1.23
2022-08-21T22:29:17.900Z,1.42
2022-08-21T22:32:10.224Z,1.40
2022-08-21T22:35:09.448Z,1.45
2022-08-21T22:38:01.452Z,1.60
2022-08-21T22:40:50.765Z,1.85
2022-08-21T22:43:51.752Z,1.45
2022-08-21T22:46:46.455Z,1.10
2022-08-21T22:49:40.063Z,1.55
2022-08-21T22:52:35.641Z,1.58
2022-08-21T22:55:29.547Z,1.30
2022-08-21T22:58:24.102Z,1.30
2022-08-21T23:01:33.357Z,1.38
2022-08-21T23:04:25.013Z,1.20
2022-08-21T23:07:14.359Z,1.33
2022-08-21T23:10:11.651Z,1.25
2022-08-21T23:13:06.971Z,1.35
2022-08-21T23:16:05.651Z,1.20
2022-08-21T23:19:04.462Z,1.23
2022-08-21T23:25:30.360Z,1.60
2022-08-21T23:28:32.760Z,1.38
2022-08-21T23:31:29.854Z,1.35
2022-08-21T23:34:28.557Z,1.13
2022-08-21T23:37:49.419Z,1.40
2022-08-21T23:40:50.631Z,1.00
2022-08-21T23:43:52.074Z,1.40
2022-08-21T23:46:56.117Z,1.17
2022-08-21T23:50:05.653Z,1.40
2022-08-21T23:53:16.514Z,1.33
2022-08-21T23:56:18.581Z,1.63
2022-08-21T23:59:28.194Z,1.17
